createdAt,value
2022-09-01T00:00:02.634Z,7.22
2022-09-01T00:02:31.027Z,7.25
2022-09-01T00:04:58.559Z,6.90
2022-09-01T00:07:29.921Z,6.60
2022-09-01T00:12:25.588Z,7.30
2022-09-01T00:14:52.885Z,7.63
2022-09-01T00:17:19.733Z,7.05
2022-09-01T00:19:46.562Z,7.53
2022-09-01T00:22:13.676Z,7.78
2022-09-01T00:24:40.793Z,7.68
2022-09-01T00:27:07.772Z,7.20
2022-09-01T00:29:36.320Z,7.82
2022-09-01T00:32:03.854Z,7.53
2022-09-01T00:34:30.615Z,7.90
2022-09-01T00:36:57.648Z,7.20
2022-09-01T00:39:24.470Z,8.02
2022-09-01T00:41:51.486Z,7.90
2022-09-01T00:44:24.694Z,7.68
2022-09-01T00:46:55.347Z,7.57
2022-09-01T00:49:41.838Z,8.50
2022-09-01T00:52:16.934Z,7.90
2022-09-01T00:54:54.062Z,8.65
2022-09-01T00:57:21.476Z,8.25
2022-09-01T00:59:59.208Z,7.82
2022-09-01T01:02:26.413Z,9.10
2022-09-01T01:08:27.148Z,8.10
2022-09-01T01:10:57.538Z,8.35
2022-09-01T01:13:26.060Z,7.95
2022-09-01T01:15:54.623Z,9.70
2022-09-01T01:18:28.372Z,8.30
2022-09-01T01:21:38.995Z,9.13
2022-09-01T01:24:25.916Z,9.60
2022-09-01T01:26:55.708Z,9.38
2022-09-01T01:29:30.194Z,9.02
2022-09-01T01:31:56.975Z,8.73
2022-09-01T01:34:24.574Z,8.90
2022-09-01T01:36:51.977Z,9.52
2022-09-01T01:39:25.309Z,8.77
2022-09-01T01:42:19.610Z,8.55
2022-09-01T01:45:31.623Z,8.88
2022-09-01T01:48:35.132Z,9.48
2022-09-01T01:51:41.010Z,8.93
2022-09-01T01:54:42.338Z,8.85
2022-09-01T01:59:38.496Z,8.05
2022-09-01T02:02:08.531Z,9.30
2022-09-01T02:04:36.167Z,8.87
2022-09-01T02:07:02.962Z,9.23
2022-09-01T02:09:29.743Z,8.75
2022-09-01T02:11:57.290Z,8.93
2022-09-01T02:14:24.483Z,9.05
2022-09-01T02:16:55.047Z,9.65
2022-09-01T02:19:21.979Z,8.98
2022-09-01T02:21:54.198Z,9.57
2022-09-01T02:24:21.425Z,8.88
2022-09-01T02:26:48.896Z,9.35
2022-09-01T02:29:21.858Z,10.27
2022-09-01T02:31:52.404Z,8.98
2022-09-01T02:34:23.951Z,10.13
2022-09-01T02:36:57.046Z,9.95
2022-09-01T02:39:28.658Z,10.02
2022-09-01T02:41:56.583Z,10.05
2022-09-01T02:44:23.486Z,9.23
2022-09-01T02:46:51.067Z,9.57
2022-09-01T02:49:29.693Z,10.25
2022-09-01T02:52:01.217Z,10.65
2022-09-01T02:54:31.447Z,11.45
2022-09-01T02:56:58.496Z,10.30
2022-09-01T02:59:28.863Z,10.90
2022-09-01T03:01:57.445Z,11.07
2022-09-01T03:04:24.938Z,12.50
2022-09-01T03:06:54.727Z,10.95
2022-09-01T03:09:22.552Z,11.73
2022-09-01T03:11:52.187Z,12.00
2022-09-01T03:14:19.960Z,12.65
2022-09-01T03:16:47.126Z,12.20
2022-09-01T03:19:15.068Z,12.32
2022-09-01T03:21:44.900Z,12.23
2022-09-01T03:24:16.722Z,12.60
2022-09-01T03:26:45.200Z,12.52
2022-09-01T03:29:17.062Z,11.43
2022-09-01T03:31:43.970Z,12.70
2022-09-01T03:34:11.088Z,12.82
2022-09-01T03:36:39.680Z,11.88
2022-09-01T03:39:14.546Z,12.32
2022-09-01T03:41:43.489Z,10.73
2022-09-01T03:44:12.047Z,11.32
2022-09-01T03:46:40.409Z,11.35
2022-09-01T03:49:08.038Z,11.40
2022-09-01T03:51:36.034Z,11.77
2022-09-01T03:54:02.801Z,12.60
2022-09-01T03:56:29.936Z,11.45
2022-09-01T03:58:59.410Z,12.35
2022-09-01T04:01:28.981Z,11.45
2022-09-01T04:03:56.098Z,12.30
2022-09-01T04:06:24.265Z,10.95
2022-09-01T04:09:02.445Z,11.45
2022-09-01T04:11:31.889Z,12.40
2022-09-01T04:13:59.646Z,12.70
2022-09-01T04:16:51.052Z,11.88
2022-09-01T04:19:26.613Z,11.75
2022-09-01T04:22:00.597Z,12.32
2022-09-01T04:24:31.081Z,11.75
2022-09-01T04:27:02.077Z,12.02
2022-09-01T04:32:02.551Z,11.30
2022-09-01T04:34:37.032Z,12.55
2022-09-01T04:37:21.041Z,12.18
2022-09-01T04:39:57.140Z,12.23
2022-09-01T04:42:29.276Z,12.60
2022-09-01T04:44:57.386Z,12.88
2022-09-01T04:47:35.467Z,10.95
2022-09-01T04:50:14.939Z,11.32
2022-09-01T04:52:44.183Z,11.65
2022-09-01T04:55:19.470Z,12.02
2022-09-01T04:57:49.975Z,13.02
2022-09-01T05:00:23.853Z,12.65
2022-09-01T05:03:03.309Z,14.20
2022-09-01T05:05:44.276Z,12.32
2022-09-01T05:08:23.198Z,12.52
2022-09-01T05:10:53.727Z,13.15
2022-09-01T05:13:23.459Z,13.27
2022-09-01T05:16:03.675Z,12.88
2022-09-01T05:18:30.667Z,12.97
2022-09-01T05:20:57.635Z,12.10
2022-09-01T05:23:26.415Z,12.80
2022-09-01T05:25:54.831Z,13.13
2022-09-01T05:28:39.943Z,13.27
2022-09-01T05:31:07.733Z,13.13
2022-09-01T05:39:21.767Z,11.65
2022-09-01T05:41:49.313Z,11.57
2022-09-01T05:44:16.980Z,12.05
2022-09-01T05:46:44.475Z,11.93
2022-09-01T05:49:13.898Z,11.70
2022-09-01T05:51:46.211Z,11.20
2022-09-01T05:54:21.485Z,10.77
2022-09-01T05:56:49.606Z,10.20
2022-09-01T05:59:25.390Z,9.30
2022-09-01T06:01:54.544Z,8.82
2022-09-01T06:04:23.205Z,8.57
2022-09-01T06:07:07.734Z,8.25
2022-09-01T06:09:40.653Z,7.65
2022-09-01T06:12:17.829Z,6.90
2022-09-01T06:14:47.363Z,7.95
2022-09-01T06:17:16.347Z,7.03
2022-09-01T06:19:44.140Z,6.80
2022-09-01T06:22:11.493Z,6.45
2022-09-01T06:24:43.874Z,6.85
2022-09-01T06:27:12.876Z,5.82
2022-09-01T06:29:39.741Z,6.22
2022-09-01T06:32:09.757Z,6.20
2022-09-01T06:34:42.295Z,5.90
2022-09-01T06:37:10.857Z,5.85
2022-09-01T06:39:38.169Z,5.97
2022-09-01T06:42:06.703Z,6.18
2022-09-01T06:44:33.868Z,5.78
2022-09-01T06:47:01.141Z,5.85
2022-09-01T06:49:34.771Z,6.68
2022-09-01T06:52:03.055Z,6.80
2022-09-01T06:54:34.304Z,6.35
2022-09-01T06:59:52.607Z,6.28
2022-09-01T07:02:22.382Z,5.63
2022-09-01T07:04:53.653Z,5.43
2022-09-01T07:10:25.373Z,4.97
2022-09-01T07:13:06.114Z,4.78
2022-09-01T07:18:25.292Z,4.82
2022-09-01T07:24:07.873Z,4.50
2022-09-01T07:26:29.562Z,5.07
2022-09-01T07:32:43.532Z,4.55
2022-09-01T07:34:40.117Z,4.80
2022-09-01T07:39:55.648Z,3.92
2022-09-01T07:42:59.008Z,4.47
2022-09-01T07:45:28.844Z,4.43
2022-09-01T07:48:03.612Z,4.13
2022-09-01T07:50:40.874Z,4.38
2022-09-01T07:53:22.464Z,3.95
2022-09-01T07:55:52.485Z,4.22
2022-09-01T08:00:53.175Z,3.90
2022-09-01T08:03:24.859Z,4.30
2022-09-01T08:05:57.627Z,4.28
2022-09-01T08:08:28.980Z,4.07
2022-09-01T08:11:04.377Z,4.07
2022-09-01T08:13:37.318Z,4.07
2022-09-01T08:16:39.976Z,4.28
2022-09-01T08:19:16.674Z,4.30
2022-09-01T08:21:43.613Z,4.90
2022-09-01T08:24:10.408Z,4.68
2022-09-01T08:26:37.503Z,4.60
2022-09-01T08:29:04.955Z,5.00
2022-09-01T08:31:32.520Z,4.50
2022-09-01T08:34:00.082Z,4.55
2022-09-01T08:36:27.074Z,4.60
2022-09-01T08:38:54.235Z,4.43
2022-09-01T08:41:37.614Z,4.13
2022-09-01T08:44:29.514Z,4.22
2022-09-01T08:47:07.906Z,4.63
2022-09-01T08:49:45.880Z,4.45
2022-09-01T08:52:34.697Z,3.88
2022-09-01T08:55:22.209Z,4.35
2022-09-01T08:57:54.815Z,4.38
2022-09-01T09:00:36.954Z,4.05
2022-09-01T09:03:40.488Z,4.15
2022-09-01T09:06:37.609Z,4.25
2022-09-01T09:09:08.427Z,4.05
2022-09-01T09:11:53.339Z,3.90
2022-09-01T09:14:44.650Z,3.92
2022-09-01T09:17:13.319Z,3.92
2022-09-01T09:19:44.799Z,3.65
2022-09-01T09:22:16.774Z,4.05
2022-09-01T09:24:50.856Z,3.50
2022-09-01T09:27:35.952Z,3.80
2022-09-01T09:30:27.282Z,3.90
2022-09-01T09:33:37.542Z,3.60
2022-09-01T09:35:54.943Z,3.78
2022-09-01T09:38:33.617Z,3.40
2022-09-01T09:41:25.623Z,3.60
2022-09-01T09:44:12.455Z,3.28
2022-09-01T09:46:43.639Z,3.40
2022-09-01T09:49:36.123Z,3.13
2022-09-01T09:52:10.380Z,3.00
2022-09-01T09:55:00.514Z,3.58
2022-09-01T09:57:30.061Z,3.33
2022-09-01T10:00:16.548Z,3.17
2022-09-01T10:02:45.894Z,2.80
2022-09-01T10:05:44.748Z,3.30
2022-09-01T10:08:45.417Z,3.38
2022-09-01T10:11:42.639Z,2.78
2022-09-01T10:14:51.688Z,3.35
2022-09-01T10:17:23.049Z,3.50
2022-09-01T10:20:04.970Z,3.20
2022-09-01T10:22:33.728Z,3.30
2022-09-01T10:25:01.683Z,3.50
2022-09-01T10:27:40.740Z,3.50
2022-09-01T10:30:20.697Z,3.55
2022-09-01T10:33:06.747Z,3.33
2022-09-01T10:35:44.360Z,3.10
2022-09-01T10:38:24.523Z,3.05
2022-09-01T10:41:14.915Z,3.05
2022-09-01T10:43:49.352Z,3.08
2022-09-01T10:46:26.605Z,3.20
2022-09-01T10:49:03.434Z,2.88
2022-09-01T10:51:36.212Z,2.80
2022-09-01T10:54:06.661Z,3.22
2022-09-01T10:56:52.723Z,3.13
2022-09-01T10:59:37.292Z,2.90
2022-09-01T11:02:26.878Z,2.88
2022-09-01T11:04:55.047Z,3.20
2022-09-01T11:07:50.549Z,2.88
2022-09-01T11:10:59.597Z,6.32
2022-09-01T11:14:08.482Z,3.72
2022-09-01T11:17:17.650Z,2.90
2022-09-01T11:20:58.581Z,3.10
2022-09-01T11:23:48.704Z,2.97
2022-09-01T11:26:56.153Z,2.83
2022-09-01T11:30:01.104Z,3.03
2022-09-01T11:33:16.625Z,3.15
2022-09-01T11:36:14.379Z,3.10
2022-09-01T11:39:23.170Z,3.17
2022-09-01T11:42:46.856Z,3.13
2022-09-01T11:45:21.517Z,3.20
2022-09-01T11:48:16.759Z,2.83
2022-09-01T11:50:43.644Z,3.15
2022-09-01T11:53:23.223Z,3.40
2022-09-01T11:55:52.790Z,3.15
2022-09-01T11:58:28.844Z,2.92
2022-09-01T12:01:00.502Z,2.78
2022-09-01T12:03:30.341Z,3.10
2022-09-01T12:06:07.346Z,2.72
2022-09-01T12:08:39.328Z,3.15
2022-09-01T12:11:18.593Z,3.40
2022-09-01T12:14:11.394Z,3.20
2022-09-01T12:16:42.461Z,3.05
2022-09-01T12:19:24.920Z,2.95
2022-09-01T12:22:14.960Z,3.38
2022-09-01T12:24:47.929Z,3.03
2022-09-01T12:27:15.185Z,3.22
2022-09-01T12:29:43.121Z,2.85
2022-09-01T12:32:11.413Z,3.30
2022-09-01T12:34:59.990Z,2.67
2022-09-01T12:37:27.707Z,2.85
2022-09-01T12:39:57.512Z,2.70
2022-09-01T12:42:40.678Z,2.80
2022-09-01T12:45:11.115Z,3.00
2022-09-01T12:47:38.338Z,3.00
2022-09-01T12:50:29.641Z,2.80
2022-09-01T12:53:02.017Z,2.67
2022-09-01T12:55:48.715Z,2.70
2022-09-01T12:58:25.581Z,2.90
2022-09-01T13:01:08.871Z,2.65
2022-09-01T13:06:10.010Z,2.10
2022-09-01T13:08:37.774Z,2.10
2022-09-01T13:11:11.250Z,2.13
2022-09-01T13:13:38.520Z,2.03
2022-09-01T13:16:12.890Z,2.08
2022-09-01T13:21:31.421Z,1.77
2022-09-01T13:23:58.717Z,2.30
2022-09-01T13:26:26.242Z,1.80
2022-09-01T13:28:53.803Z,1.80
2022-09-01T13:31:36.346Z,2.28
2022-09-01T13:34:20.436Z,2.00
2022-09-01T13:36:52.546Z,1.92
2022-09-01T13:39:21.018Z,2.10
2022-09-01T13:41:49.374Z,2.13
2022-09-01T13:44:18.047Z,2.00
2022-09-01T13:47:28.553Z,2.60
2022-09-01T13:52:21.567Z,2.33
2022-09-01T13:54:48.362Z,2.05
2022-09-01T13:57:16.310Z,2.20
2022-09-01T13:59:43.375Z,2.03
2022-09-01T14:02:10.970Z,2.50
2022-09-01T14:04:38.464Z,1.88
2022-09-01T14:07:05.707Z,2.20
2022-09-01T14:09:32.469Z,2.20
2022-09-01T14:11:59.388Z,1.95
2022-09-01T14:14:26.423Z,2.20
2022-09-01T14:16:53.932Z,1.60
2022-09-01T14:19:21.185Z,2.15
2022-09-01T14:21:49.605Z,2.20
2022-09-01T14:24:19.864Z,1.90
2022-09-01T14:29:14.302Z,1.70
2022-09-01T14:31:43.390Z,1.55
2022-09-01T14:34:12.180Z,1.70
2022-09-01T14:36:39.123Z,1.80
2022-09-01T14:39:06.224Z,1.80
2022-09-01T14:41:33.145Z,1.77
2022-09-01T14:44:03.293Z,1.90
2022-09-01T14:46:33.755Z,2.08
2022-09-01T14:49:02.105Z,1.75
2022-09-01T14:54:18.187Z,1.77
2022-09-01T14:57:28.375Z,1.77
2022-09-01T14:59:33.063Z,2.10
2022-09-01T15:02:00.122Z,1.65
2022-09-01T15:04:27.829Z,1.80
2022-09-01T15:06:55.501Z,1.80
2022-09-01T15:09:22.846Z,1.65
2022-09-01T15:11:49.638Z,1.83
2022-09-01T15:14:16.569Z,1.85
2022-09-01T15:16:43.651Z,1.95
2022-09-01T15:19:13.415Z,1.77
2022-09-01T15:21:42.892Z,1.88
2022-09-01T15:24:10.499Z,1.80
2022-09-01T15:26:40.863Z,2.05
2022-09-01T15:29:13.084Z,1.80
2022-09-01T15:31:40.119Z,1.65
2022-09-01T15:34:07.331Z,1.70
2022-09-01T15:36:40.511Z,1.70
2022-09-01T15:39:10.140Z,1.98
2022-09-01T15:41:38.050Z,2.03
2022-09-01T15:44:08.070Z,2.00
2022-09-01T15:46:38.900Z,1.90
2022-09-01T15:49:10.147Z,1.95
2022-09-01T15:51:43.443Z,1.90
2022-09-01T15:54:14.572Z,2.03
2022-09-01T15:56:42.876Z,2.03
2022-09-01T15:59:10.881Z,2.00
2022-09-01T16:01:41.679Z,2.08
2022-09-01T16:04:15.869Z,1.83
2022-09-01T16:06:45.020Z,2.00
2022-09-01T16:09:17.718Z,1.83
2022-09-01T16:11:55.739Z,2.08
2022-09-01T16:14:36.065Z,1.85
2022-09-01T16:17:38.628Z,1.88
2022-09-01T16:21:01.910Z,1.70
2022-09-01T16:24:30.602Z,2.00
2022-09-01T16:26:57.691Z,2.50
2022-09-01T16:29:53.345Z,1.98
2022-09-01T16:32:23.166Z,2.17
2022-09-01T16:34:52.132Z,2.08
2022-09-01T16:37:25.051Z,2.10
2022-09-01T16:39:55.262Z,1.77
2022-09-01T16:42:42.944Z,2.00
2022-09-01T16:45:42.744Z,2.40
2022-09-01T16:48:41.300Z,2.00
2022-09-01T16:52:06.638Z,2.00
2022-09-01T16:55:05.447Z,1.90
2022-09-01T16:57:59.052Z,2.03
2022-09-01T17:00:38.599Z,2.05
2022-09-01T17:03:19.568Z,2.10
2022-09-01T17:06:13.106Z,2.42
2022-09-01T17:08:52.590Z,2.40
2022-09-01T17:11:34.328Z,2.10
2022-09-01T17:14:02.765Z,1.90
2022-09-01T17:16:42.557Z,2.00
2022-09-01T17:19:17.612Z,2.38
2022-09-01T17:21:56.038Z,1.95
2022-09-01T17:24:42.598Z,2.15
2022-09-01T17:27:21.404Z,2.22
2022-09-01T17:29:52.630Z,2.03
2022-09-01T17:32:48.261Z,2.35
2022-09-01T17:35:46.132Z,2.10
2022-09-01T17:38:54.437Z,2.58
2022-09-01T17:41:38.927Z,1.88
2022-09-01T17:44:45.352Z,2.33
2022-09-01T17:47:41.215Z,2.20
2022-09-01T17:50:30.235Z,2.30
2022-09-01T17:53:21.780Z,2.13
2022-09-01T17:56:18.103Z,2.00
2022-09-01T17:59:26.666Z,2.17
2022-09-01T18:02:40.894Z,2.60
2022-09-01T18:05:19.582Z,2.08
2022-09-01T18:08:30.448Z,2.40
2022-09-01T18:11:23.671Z,2.35
2022-09-01T18:13:59.907Z,2.28
2022-09-01T18:16:32.276Z,2.10
2022-09-01T18:19:05.655Z,2.20
2022-09-01T18:21:40.383Z,2.20
2022-09-01T18:24:52.008Z,2.22
2022-09-01T18:27:18.850Z,2.50
2022-09-01T18:29:52.005Z,2.22
2022-09-01T18:32:30.515Z,2.47
2022-09-01T18:35:31.543Z,2.50
2022-09-01T18:38:36.022Z,2.47
2022-09-01T18:41:24.974Z,2.65
2022-09-01T18:44:41.367Z,2.55
2022-09-01T18:47:12.706Z,2.40
2022-09-01T18:50:06.992Z,2.42
2022-09-01T18:53:22.433Z,2.50
2022-09-01T18:56:17.048Z,2.20
2022-09-01T18:59:02.894Z,2.45
2022-09-01T19:01:40.754Z,2.38
2022-09-01T19:04:35.750Z,2.13
2022-09-01T19:07:23.553Z,2.25
2022-09-01T19:10:08.763Z,2.50
2022-09-01T19:13:13.130Z,2.40
2022-09-01T19:16:13.796Z,2.45
2022-09-01T19:18:55.876Z,2.72
2022-09-01T19:21:32.916Z,2.72
2022-09-01T19:24:13.896Z,2.60
2022-09-01T19:26:45.560Z,2.85
2022-09-01T19:29:29.999Z,2.90
2022-09-01T19:32:02.465Z,2.80
2022-09-01T19:34:44.348Z,2.78
2022-09-01T19:37:12.362Z,2.55
2022-09-01T19:39:45.323Z,2.75
2022-09-01T19:42:39.200Z,2.50
2022-09-01T19:45:36.340Z,2.83
2022-09-01T19:48:43.511Z,2.70
2022-09-01T19:51:32.150Z,3.00
2022-09-01T19:54:22.493Z,2.90
2022-09-01T19:57:13.336Z,3.20
2022-09-01T19:59:46.043Z,2.45
2022-09-01T20:02:36.877Z,2.92
2022-09-01T20:08:03.442Z,2.72
2022-09-01T20:10:49.684Z,2.65
2022-09-01T20:14:00.747Z,2.75
2022-09-01T20:16:40.099Z,3.35
2022-09-01T20:19:56.598Z,3.28
2022-09-01T20:22:55.335Z,3.70
2022-09-01T20:25:37.739Z,3.10
2022-09-01T20:28:17.672Z,3.60
2022-09-01T20:30:53.275Z,3.53
2022-09-01T20:33:44.136Z,3.10
2022-09-01T20:36:35.405Z,3.30
2022-09-01T20:39:33.765Z,3.50
2022-09-01T20:42:09.911Z,4.28
2022-09-01T20:44:58.416Z,3.50
2022-09-01T20:47:29.448Z,3.50
2022-09-01T20:50:03.930Z,3.60
2022-09-01T20:53:33.873Z,4.07
2022-09-01T20:56:09.797Z,4.18
2022-09-01T20:58:42.013Z,3.15
2022-09-01T21:01:39.512Z,3.78
2022-09-01T21:04:50.873Z,3.53
2022-09-01T21:07:41.858Z,3.60
2022-09-01T21:13:10.888Z,3.70
2022-09-01T21:15:50.880Z,3.22
2022-09-01T21:18:51.436Z,4.00
2022-09-01T21:21:33.099Z,3.85
2022-09-01T21:23:59.887Z,3.17
2022-09-01T21:26:26.726Z,3.40
2022-09-01T21:28:56.275Z,3.67
2022-09-01T21:31:24.329Z,3.50
2022-09-01T21:33:51.943Z,3.75
2022-09-01T21:36:18.817Z,3.08
2022-09-01T21:38:45.594Z,3.00
2022-09-01T21:41:13.328Z,3.63
2022-09-01T21:43:45.378Z,3.50
2022-09-01T21:46:14.583Z,3.40
2022-09-01T21:48:41.653Z,3.70
2022-09-01T21:51:08.445Z,3.83
2022-09-01T21:53:35.376Z,3.35
2022-09-01T21:56:02.360Z,3.28
2022-09-01T21:58:29.422Z,3.35
2022-09-01T22:00:58.289Z,3.50
2022-09-01T22:03:25.097Z,3.15
2022-09-01T22:05:52.379Z,3.42
2022-09-01T22:08:19.403Z,3.20
2022-09-01T22:10:51.883Z,3.03
2022-09-01T22:13:21.930Z,3.40
2022-09-01T22:15:53.111Z,2.85
2022-09-01T22:18:21.643Z,3.35
2022-09-01T22:20:48.827Z,3.55
2022-09-01T22:23:16.313Z,3.28
2022-09-01T22:25:46.340Z,2.95
2022-09-01T22:28:14.123Z,3.45
2022-09-01T22:30:46.980Z,3.28
2022-09-01T22:33:14.243Z,3.17
2022-09-01T22:35:44.672Z,3.10
2022-09-01T22:38:11.902Z,3.35
2022-09-01T22:40:57.092Z,3.58
2022-09-01T22:43:24.628Z,3.30
2022-09-01T22:45:53.019Z,3.22
2022-09-01T22:48:26.008Z,3.03
2022-09-01T22:50:53.304Z,3.13
2022-09-01T22:53:22.597Z,3.38
2022-09-01T22:55:51.798Z,3.03
2022-09-01T22:58:19.531Z,2.97
2022-09-01T23:00:50.373Z,3.30
2022-09-01T23:03:19.523Z,3.05
2022-09-01T23:05:47.578Z,3.30
2022-09-01T23:08:16.327Z,3.15
2022-09-01T23:10:43.227Z,3.15
2022-09-01T23:13:10.207Z,3.25
2022-09-01T23:15:37.987Z,3.22
2022-09-01T23:18:04.913Z,3.38
2022-09-01T23:20:31.705Z,3.10
2022-09-01T23:22:58.555Z,3.20
2022-09-01T23:25:25.430Z,3.00
2022-09-01T23:27:52.215Z,2.80
2022-09-01T23:30:19.037Z,3.10
2022-09-01T23:32:46.052Z,2.85
2022-09-01T23:35:13.463Z,2.70
2022-09-01T23:37:40.421Z,2.92
2022-09-01T23:40:08.885Z,3.30
2022-09-01T23:42:36.039Z,3.00
2022-09-01T23:45:03.031Z,2.83
2022-09-01T23:47:31.118Z,2.65
2022-09-01T23:49:57.987Z,3.10
2022-09-01T23:52:24.836Z,3.13
2022-09-01T23:54:51.746Z,2.90
2022-09-01T23:57:19.078Z,2.80
2022-09-01T23:59:46.363Z,2.60
